Time;durP1;ratioP1;P1;durP2;ratioP2;P2;SDS_P1;SDS_P2;PMS_P1;PMS_P2;Temp;Humidity;BMP_temperature;BMP_pressure;BME280_temperature;BME280_humidity;BME280_pressure;Samples;Min_cycle;Max_cycle;Signal;HPM_P1;HPM_P2
2021/09/12 00:01:24;;;;;;;9.15;4.68;;;;;;;18.00;52.84;99828.06;5108927;28;20044;-73
2021/09/12 00:03:52;;;;;;;8.35;4.65;;;;;;;17.98;52.97;99819.41;5106884;28;20043;-73
2021/09/12 00:06:18;;;;;;;15.02;4.97;;;;;;;17.91;53.00;99813.22;5111506;28;20058;-74
2021/09/12 00:08:43;;;;;;;8.50;4.88;;;;;;;17.90;52.85;99808.91;5106793;28;20039;-73
2021/09/12 00:11:09;;;;;;;9.23;4.50;;;;;;;17.75;53.16;99806.44;5115895;28;20080;-73
2021/09/12 00:13:34;;;;;;;13.15;4.30;;;;;;;17.96;52.89;99816.09;5109031;28;20096;-73
2021/09/12 00:16:00;;;;;;;12.98;4.55;;;;;;;18.11;52.66;99826.59;5113512;28;20099;-73
2021/09/12 00:18:25;;;;;;;9.82;4.15;;;;;;;18.08;52.53;99813.63;5110037;28;20031;-74
2021/09/12 00:20:51;;;;;;;12.25;5.18;;;;;;;17.81;53.25;99823.53;5117410;28;20023;-74
2021/09/12 00:23:16;;;;;;;9.35;4.95;;;;;;;17.80;53.71;99817.34;5104093;28;20020;-74
2021/09/12 00:25:42;;;;;;;12.85;5.50;;;;;;;17.56;54.34;99816.06;5106651;28;20028;-73
2021/09/12 00:28:08;;;;;;;6.93;4.95;;;;;;;17.63;54.39;99820.59;5105973;28;20206;-74
2021/09/12 00:30:34;;;;;;;10.07;5.18;;;;;;;17.75;53.81;99821.69;5112033;28;20024;-73
2021/09/12 00:32:59;;;;;;;8.82;4.68;;;;;;;17.46;54.91;99802.25;5092154;28;20027;-73
2021/09/12 00:35:25;;;;;;;13.77;5.32;;;;;;;17.84;53.86;99821.28;5109391;28;20062;-73
2021/09/12 00:37:50;;;;;;;10.52;4.97;;;;;;;17.66;54.69;99804.13;5118496;28;20039;-73
2021/09/12 00:40:20;;;;;;;7.00;4.53;;;;;;;17.62;54.31;99797.53;5078989;28;20364;-73
2021/09/12 00:42:46;;;;;;;8.55;4.78;;;;;;;17.73;54.18;99795.13;5071222;28;20029;-75
2021/09/12 00:45:12;;;;;;;8.60;5.07;;;;;;;17.75;54.18;99806.44;5069899;28;20033;-73
2021/09/12 00:47:38;;;;;;;9.85;4.78;;;;;;;17.63;54.76;99813.38;5082252;28;20047;-74
2021/09/12 00:50:05;;;;;;;9.13;4.72;;;;;;;17.79;53.99;99804.19;5081807;28;20032;-74
2021/09/12 00:52:33;;;;;;;11.05;5.00;;;;;;;17.56;54.27;99805.34;5082048;28;20025;-73
2021/09/12 00:55:01;;;;;;;7.93;4.93;;;;;;;17.32;55.42;99803.28;5082376;28;20044;-73
2021/09/12 00:57:27;;;;;;;12.73;5.25;;;;;;;17.33;55.24;99799.56;5082097;28;20028;-74
2021/09/12 00:59:54;;;;;;;7.03;4.55;;;;;;;17.54;54.69;99811.94;5081919;28;20048;-73
2021/09/12 01:02:20;;;;;;;9.55;5.25;;;;;;;17.53;54.86;99810.28;5082417;28;20036;-74
2021/09/12 01:04:46;;;;;;;15.50;5.57;;;;;;;17.39;54.86;99808.63;5081704;28;20283;-74
2021/09/12 01:07:13;;;;;;;8.45;4.38;;;;;;;17.35;54.96;99813.56;5081807;28;20028;-73
2021/09/12 01:09:39;;;;;;;9.05;4.85;;;;;;;17.25;55.54;99815.81;5081728;28;20035;-73
2021/09/12 01:12:06;;;;;;;11.45;5.15;;;;;;;17.33;55.37;99812.97;5080671;28;20048;-73
2021/09/12 01:14:33;;;;;;;9.15;5.00;;;;;;;17.40;54.58;99812.97;5081802;28;20047;-73
2021/09/12 01:16:59;;;;;;;12.30;5.15;;;;;;;17.40;54.96;99813.78;5081861;28;20062;-73
2021/09/12 01:19:25;;;;;;;10.90;5.07;;;;;;;17.30;55.25;99808.00;5069620;28;20039;-73
2021/09/12 01:21:55;;;;;;;10.50;4.53;;;;;;;17.24;55.31;99803.47;5078593;28;20029;-73
2021/09/12 01:24:21;;;;;;;9.65;5.10;;;;;;;17.15;55.09;99800.16;5086360;28;20028;-73
2021/09/12 01:26:46;;;;;;;11.27;4.95;;;;;;;17.24;54.80;99801.63;5085770;28;20078;-73
2021/09/12 01:29:15;;;;;;;8.05;5.10;;;;;;;17.13;55.05;99804.06;5085827;28;20032;-73
2021/09/12 01:31:41;;;;;;;10.85;4.88;;;;;;;17.42;54.14;99802.88;5085907;28;20025;-74
2021/09/12 01:34:06;;;;;;;8.43;5.10;;;;;;;17.35;54.85;99810.91;5081861;28;20042;-73
2021/09/12 01:36:32;;;;;;;10.65;5.40;;;;;;;17.33;54.31;99812.13;5070955;28;20021;-75
2021/09/12 01:38:57;;;;;;;12.95;5.22;;;;;;;17.21;54.43;99804.72;5087988;28;20020;-74
2021/09/12 01:41:23;;;;;;;11.80;5.25;;;;;;;17.13;55.16;99815.59;5086657;28;20024;-73
2021/09/12 01:43:49;;;;;;;11.20;5.50;;;;;;;17.17;54.92;99808.81;5104710;28;20028;-75
2021/09/12 01:46:15;;;;;;;18.65;7.32;;;;;;;17.08;54.75;99809.22;5099203;28;20433;-73
2021/09/12 01:48:41;;;;;;;13.68;5.38;;;;;;;17.05;55.15;99813.13;5125061;28;20031;-75
2021/09/12 01:51:07;;;;;;;11.75;5.28;;;;;;;16.84;55.68;99803.38;5123608;28;20042;-74
2021/09/12 01:53:33;;;;;;;8.13;5.38;;;;;;;16.70;56.31;99807.03;5111524;28;20063;-73
2021/09/12 01:55:59;;;;;;;11.02;5.78;;;;;;;16.85;55.62;99807.72;5110382;28;20039;-73
2021/09/12 01:58:28;;;;;;;11.50;5.15;;;;;;;17.05;55.02;99804.25;5113929;28;20044;-74
2021/09/12 02:00:54;;;;;;;8.30;5.53;;;;;;;16.95;55.34;99815.34;5106697;28;20081;-73
2021/09/12 02:03:19;;;;;;;17.40;5.57;;;;;;;17.05;54.92;99810.44;5101450;28;20023;-73
2021/09/12 02:05:45;;;;;;;12.80;5.10;;;;;;;17.13;54.88;99812.09;5112709;28;20059;-73
2021/09/12 02:08:10;;;;;;;13.10;4.93;;;;;;;17.02;55.06;99810.03;5111520;28;20035;-74
2021/09/12 02:10:36;;;;;;;11.40;5.78;;;;;;;16.86;54.90;99800.50;5115978;28;20039;-73
2021/09/12 02:13:02;;;;;;;15.35;5.50;;;;;;;16.98;54.66;99796.22;5115473;28;20274;-73
2021/09/12 02:15:27;;;;;;;8.63;5.20;;;;;;;16.93;54.71;99804.03;5107451;28;20031;-73
2021/09/12 02:17:53;;;;;;;15.13;5.88;;;;;;;16.96;54.67;99795.59;5105340;28;20296;-73
2021/09/12 02:20:18;;;;;;;11.38;5.47;;;;;;;17.01;54.28;99798.50;5113298;28;20498;-73
2021/09/12 02:22:44;;;;;;;16.38;5.15;;;;;;;16.91;54.91;99804.22;5110662;28;20259;-75
2021/09/12 02:25:09;;;;;;;10.85;5.40;;;;;;;16.67;55.48;99804.78;5108802;28;20329;-73
2021/09/12 02:27:35;;;;;;;8.68;5.13;;;;;;;16.49;55.47;99777.69;5114494;28;20253;-74
2021/09/12 02:30:01;;;;;;;9.13;5.20;;;;;;;16.55;55.67;99795.59;5117598;28;20032;-74
2021/09/12 02:32:26;;;;;;;8.82;5.00;;;;;;;16.69;55.32;99812.59;5119864;28;20077;-74
2021/09/12 02:34:52;;;;;;;13.40;4.78;;;;;;;16.84;54.69;99799.88;5115296;28;20028;-73
2021/09/12 02:37:18;;;;;;;10.05;5.13;;;;;;;16.56;55.17;99799.94;5100492;28;20340;-73
2021/09/12 02:39:43;;;;;;;7.50;4.90;;;;;;;16.66;54.94;99803.13;5112802;28;20032;-73
2021/09/12 02:42:09;;;;;;;11.35;5.40;;;;;;;16.46;55.27;99778.09;5112334;28;20325;-73
2021/09/12 02:44:34;;;;;;;15.00;5.00;;;;;;;16.68;55.06;99794.91;5109359;28;20035;-74
2021/09/12 02:47:00;;;;;;;6.93;4.95;;;;;;;16.75;54.69;99809.13;5097274;28;20020;-75
2021/09/12 02:49:25;;;;;;;11.00;5.22;;;;;;;16.70;55.01;99804.38;5103118;28;20047;-73
2021/09/12 02:51:51;;;;;;;9.77;5.55;;;;;;;16.86;54.52;99798.66;5085608;28;20020;-75
2021/09/12 02:54:16;;;;;;;10.38;5.20;;;;;;;16.86;55.06;99803.19;5108795;28;20104;-74
2021/09/12 02:56:42;;;;;;;12.68;5.15;;;;;;;16.92;54.41;99810.41;5119516;28;20042;-73
2021/09/12 02:59:07;;;;;;;11.45;5.60;;;;;;;16.78;54.62;99793.50;5092783;28;20040;-73
2021/09/12 03:01:33;;;;;;;8.38;5.22;;;;;;;16.74;55.42;99802.94;5268114;22;20368;-67
2021/09/12 03:03:58;;;;;;;8.20;4.82;;;;;;;16.77;55.05;99812.41;5100199;28;20038;-67
2021/09/12 03:06:23;;;;;;;17.42;6.05;;;;;;;16.72;55.52;99806.84;5098951;28;20217;-67
2021/09/12 03:08:49;;;;;;;7.18;5.20;;;;;;;16.75;55.41;99809.13;5100290;28;20102;-67
2021/09/12 03:11:14;;;;;;;14.70;5.35;;;;;;;16.67;55.31;99806.63;5099155;28;20035;-66
2021/09/12 03:13:40;;;;;;;12.57;5.40;;;;;;;16.48;56.54;99806.28;5100293;28;20301;-67
2021/09/12 03:16:05;;;;;;;8.50;4.95;;;;;;;16.48;56.18;99808.94;5098736;28;20047;-67
2021/09/12 03:18:31;;;;;;;9.20;5.32;;;;;;;16.10;57.27;99815.72;5077230;28;20023;-67
2021/09/12 03:20:56;;;;;;;10.85;5.38;;;;;;;16.15;57.72;99814.13;5099876;28;20043;-67
2021/09/12 03:23:22;;;;;;;11.52;5.63;;;;;;;16.40;57.51;99813.63;5099488;28;20054;-67
2021/09/12 03:25:47;;;;;;;11.02;5.32;;;;;;;16.38;57.53;99821.03;5100001;28;20020;-67
2021/09/12 03:28:13;;;;;;;11.55;6.03;;;;;;;16.43;57.37;99827.44;5098619;28;20032;-67
2021/09/12 03:30:38;;;;;;;9.95;5.47;;;;;;;16.35;57.00;99806.22;5098787;28;20032;-67
2021/09/12 03:33:04;;;;;;;11.25;5.28;;;;;;;16.48;57.15;99819.63;5099741;28;20034;-67
2021/09/12 03:35:29;;;;;;;11.48;5.88;;;;;;;16.35;57.69;99824.91;5098602;28;20040;-67
2021/09/12 03:37:55;;;;;;;11.30;5.45;;;;;;;16.29;58.10;99817.69;5099685;28;20085;-67
2021/09/12 03:40:20;;;;;;;9.27;5.57;;;;;;;16.44;57.47;99823.72;5098237;28;20377;-67
2021/09/12 03:42:46;;;;;;;9.65;5.78;;;;;;;16.48;57.03;99816.97;5100011;28;20039;-67
2021/09/12 03:45:11;;;;;;;12.45;5.90;;;;;;;16.40;57.30;99825.16;5097748;28;20230;-67
2021/09/12 03:47:37;;;;;;;18.20;6.15;;;;;;;16.34;57.57;99827.78;5099050;28;20317;-67
2021/09/12 03:50:03;;;;;;;8.45;4.93;;;;;;;16.29;58.03;99836.38;5099152;28;20225;-67
2021/09/12 03:52:29;;;;;;;10.13;5.18;;;;;;;16.45;57.49;99832.56;5098212;28;20088;-67
2021/09/12 03:54:54;;;;;;;8.35;5.05;;;;;;;16.46;57.26;99818.19;5099762;28;20340;-67
2021/09/12 03:57:23;;;;;;;10.68;5.40;;;;;;;16.36;57.68;99831.91;5098135;28;20024;-67
2021/09/12 03:59:48;;;;;;;12.15;5.63;;;;;;;16.32;57.65;99835.16;5098552;28;20345;-67
2021/09/12 04:02:14;;;;;;;10.63;5.30;;;;;;;16.34;57.43;99835.81;5097699;28;20047;-67
2021/09/12 04:04:39;;;;;;;12.65;5.10;;;;;;;16.28;57.84;99834.75;5098682;28;20035;-67
2021/09/12 04:07:04;;;;;;;7.47;5.18;;;;;;;16.34;57.65;99835.81;5098653;28;20325;-67
2021/09/12 04:09:30;;;;;;;10.75;6.00;;;;;;;16.30;57.51;99830.03;5098078;28;20081;-67
2021/09/12 04:11:55;;;;;;;8.77;5.47;;;;;;;16.19;58.29;99825.22;5099143;28;20585;-67
2021/09/12 04:14:21;;;;;;;8.73;5.32;;;;;;;16.09;58.11;99820.25;5097894;28;20036;-67
2021/09/12 04:16:46;;;;;;;11.43;5.28;;;;;;;16.29;57.45;99829.19;5080244;28;20150;-67
2021/09/12 04:19:12;;;;;;;16.02;5.43;;;;;;;16.35;57.36;99832.94;5080340;28;20479;-67
2021/09/12 04:21:37;;;;;;;9.07;4.78;;;;;;;16.39;57.49;99839.53;5097604;28;20064;-67
2021/09/12 04:24:03;;;;;;;11.52;5.38;;;;;;;16.51;57.03;99840.63;5098955;28;20105;-67
2021/09/12 04:26:28;;;;;;;9.30;4.97;;;;;;;16.50;57.08;99836.31;5097438;28;20040;-67
2021/09/12 04:28:54;;;;;;;11.43;5.20;;;;;;;16.49;57.03;99841.84;5097891;28;20034;-67
2021/09/12 04:31:19;;;;;;;14.25;5.22;;;;;;;16.47;56.69;99844.72;5098733;28;20032;-67
2021/09/12 04:33:45;;;;;;;12.70;6.35;;;;;;;16.24;57.40;99842.31;5078944;28;20043;-67
2021/09/12 04:36:10;;;;;;;9.48;5.53;;;;;;;16.26;57.76;99840.28;5098640;28;20028;-67
2021/09/12 04:38:35;;;;;;;8.70;5.25;;;;;;;16.08;58.03;99826.59;5097400;28;20038;-67
2021/09/12 04:41:01;;;;;;;14.40;6.25;;;;;;;16.23;57.89;99838.00;5097626;28;20093;-67
2021/09/12 04:43:27;;;;;;;12.68;5.75;;;;;;;16.26;57.42;99831.44;5098589;28;20050;-67
2021/09/12 04:45:52;;;;;;;11.38;5.53;;;;;;;16.39;57.35;99836.03;5097254;28;20435;-67
2021/09/12 04:48:18;;;;;;;10.25;5.38;;;;;;;16.30;57.63;99830.03;5098551;28;20024;-67
2021/09/12 04:50:43;;;;;;;14.60;5.30;;;;;;;16.47;57.20;99831.34;5097001;28;20048;-67
2021/09/12 04:53:08;;;;;;;9.45;5.03;;;;;;;16.39;57.53;99833.38;5075499;28;20031;-67
2021/09/12 04:55:34;;;;;;;7.68;5.43;;;;;;;16.49;57.62;99840.00;5098087;28;20087;-67
2021/09/12 04:57:59;;;;;;;14.50;5.50;;;;;;;16.58;57.40;99838.81;5077652;28;20518;-67
2021/09/12 05:00:25;;;;;;;10.68;4.93;;;;;;;16.74;57.00;99842.22;5097995;28;20073;-67
2021/09/12 05:02:50;;;;;;;9.73;4.97;;;;;;;16.60;57.66;99827.91;5097065;28;20059;-67
2021/09/12 05:05:16;;;;;;;12.35;4.97;;;;;;;16.73;57.84;99836.06;5096954;28;20259;-67
2021/09/12 05:07:41;;;;;;;9.63;4.68;;;;;;;16.86;57.49;99840.63;5098272;28;20719;-67
2021/09/12 05:10:07;;;;;;;9.05;4.80;;;;;;;16.95;57.28;99836.75;5096634;28;20048;-67
2021/09/12 05:12:33;;;;;;;14.00;5.50;;;;;;;17.01;57.28;99840.47;5098701;28;20324;-67
2021/09/12 05:14:58;;;;;;;8.52;4.63;;;;;;;17.22;57.01;99840.31;5097533;28;20115;-67
2021/09/12 05:17:24;;;;;;;12.25;4.82;;;;;;;17.27;56.76;99839.72;5096996;28;20032;-67
2021/09/12 05:19:49;;;;;;;11.93;5.05;;;;;;;17.55;56.64;99848.41;5097958;28;20368;-67
2021/09/12 05:22:15;;;;;;;9.38;5.15;;;;;;;17.83;55.55;99848.25;5096823;28;20060;-67
2021/09/12 05:24:40;;;;;;;7.35;4.90;;;;;;;18.14;54.56;99847.63;5097236;28;20100;-67
2021/09/12 05:27:06;;;;;;;12.80;5.18;;;;;;;18.43;53.34;99849.81;5098266;28;20055;-67
2021/09/12 05:29:31;;;;;;;9.77;4.85;;;;;;;18.63;52.77;99846.28;5097405;28;20251;-67
2021/09/12 05:31:57;;;;;;;7.78;4.88;;;;;;;18.70;51.91;99837.19;5097602;28;20337;-67
2021/09/12 05:34:22;;;;;;;11.45;4.65;;;;;;;18.81;52.00;99847.28;5097005;28;20038;-67
2021/09/12 05:36:47;;;;;;;14.68;4.82;;;;;;;18.97;51.86;99847.81;5097386;28;20024;-67
2021/09/12 05:39:13;;;;;;;13.18;4.90;;;;;;;19.27;50.28;99848.91;5097627;28;20032;-67
2021/09/12 05:41:38;;;;;;;12.50;4.43;;;;;;;19.47;49.54;99832.66;5097011;28;20031;-67
2021/09/12 05:44:04;;;;;;;11.20;4.60;;;;;;;19.57;49.46;99834.88;5097959;28;20036;-67
2021/09/12 05:46:29;;;;;;;11.75;4.53;;;;;;;19.90;48.99;99837.34;5096866;28;20257;-68
2021/09/12 05:48:55;;;;;;;10.27;4.88;;;;;;;20.06;47.63;99847.53;5097152;28;20016;-67
2021/09/12 05:51:20;;;;;;;9.45;4.68;;;;;;;20.21;47.01;99842.63;5097296;28;20044;-67
2021/09/12 05:53:46;;;;;;;8.68;3.70;;;;;;;20.54;46.32;99842.28;5096734;28;20016;-67
2021/09/12 05:56:11;;;;;;;9.38;3.95;;;;;;;20.94;45.11;99834.59;5097936;28;20235;-67
2021/09/12 05:58:36;;;;;;;8.80;4.35;;;;;;;21.17;44.26;99841.94;5096491;28;20032;-68
2021/09/12 06:01:02;;;;;;;6.95;3.92;;;;;;;21.20;43.62;99846.84;5096219;28;20040;-67
2021/09/12 06:03:28;;;;;;;9.52;4.18;;;;;;;21.16;43.81;99836.78;5097462;28;20040;-67
2021/09/12 06:05:53;;;;;;;5.40;3.63;;;;;;;21.34;42.88;99837.56;5096579;28;20050;-67
2021/09/12 06:08:19;;;;;;;7.50;3.83;;;;;;;21.29;43.59;99842.81;5098507;28;20032;-67
2021/09/12 06:10:44;;;;;;;13.25;4.05;;;;;;;21.46;43.36;99832.22;5100078;28;20101;-67
2021/09/12 06:13:10;;;;;;;6.15;4.05;;;;;;;21.34;43.17;99842.13;5100564;28;20056;-67
2021/09/12 06:15:35;;;;;;;9.68;4.25;;;;;;;21.61;42.06;99835.28;5083862;28;20032;-67
2021/09/12 06:18:01;;;;;;;6.57;4.30;;;;;;;21.84;41.35;99842.59;5100220;28;20026;-68
2021/09/12 06:20:26;;;;;;;8.80;4.05;;;;;;;21.95;41.65;99831.00;5101082;28;20039;-68
2021/09/12 06:22:53;;;;;;;14.93;4.20;;;;;;;22.29;41.29;99834.78;5100275;28;20035;-67
2021/09/12 06:25:19;;;;;;;6.15;3.72;;;;;;;22.67;40.50;99844.22;5100118;28;20043;-68
2021/09/12 06:27:45;;;;;;;7.25;3.63;;;;;;;22.66;40.02;99839.88;5101198;28;20032;-68
2021/09/12 06:30:12;;;;;;;5.93;3.65;;;;;;;23.08;39.76;99837.00;5099505;28;20042;-68
2021/09/12 06:32:37;;;;;;;6.68;3.75;;;;;;;23.04;39.36;99842.06;5101420;28;20151;-68
2021/09/12 06:35:04;;;;;;;6.30;3.47;;;;;;;23.22;38.64;99841.84;5099577;28;20116;-68
2021/09/12 06:37:29;;;;;;;11.02;3.40;;;;;;;23.70;37.39;99828.91;5100313;28;20098;-68
2021/09/12 06:39:55;;;;;;;9.68;3.42;;;;;;;23.79;37.55;99828.25;5101077;28;20036;-68
2021/09/12 06:42:20;;;;;;;7.97;3.70;;;;;;;24.40;36.51;99831.91;5099610;28;20348;-68
2021/09/12 06:44:46;;;;;;;10.82;4.00;;;;;;;24.51;35.70;99824.75;5100943;28;20020;-68
2021/09/12 06:47:11;;;;;;;9.85;4.20;;;;;;;24.73;34.74;99824.75;5100155;28;20359;-68
2021/09/12 06:49:37;;;;;;;13.18;3.95;;;;;;;24.82;34.58;99828.63;5099957;28;20341;-68
2021/09/12 06:52:03;;;;;;;7.75;3.15;;;;;;;25.23;33.46;99821.81;5100364;28;20040;-68
2021/09/12 06:54:28;;;;;;;8.57;3.20;;;;;;;25.27;33.43;99822.13;5099354;28;20052;-68
2021/09/12 06:56:54;;;;;;;6.50;3.45;;;;;;;25.16;32.25;99817.69;5100909;28;20089;-68
2021/09/12 06:59:19;;;;;;;5.40;3.15;;;;;;;25.41;31.37;99818.75;5099427;28;20246;-68
2021/09/12 07:01:45;;;;;;;4.35;3.00;;;;;;;25.19;31.98;99819.88;5098834;28;20024;-68
2021/09/12 07:04:11;;;;;;;9.20;3.53;;;;;;;25.37;30.76;99820.34;5100088;28;20083;-68
2021/09/12 07:06:36;;;;;;;6.90;3.40;;;;;;;25.90;29.69;99820.53;5099230;28;20089;-68
2021/09/12 07:09:02;;;;;;;6.43;3.33;;;;;;;26.16;29.51;99832.38;5100513;28;20024;-68
2021/09/12 07:11:27;;;;;;;7.97;3.05;;;;;;;26.07;29.05;99821.22;5099231;28;20528;-68
2021/09/12 07:13:53;;;;;;;9.20;3.25;;;;;;;26.12;29.47;99810.38;5099421;28;20313;-68
2021/09/12 07:16:18;;;;;;;9.80;3.45;;;;;;;26.22;29.24;99824.03;5099245;28;20352;-68
2021/09/12 07:18:44;;;;;;;9.27;3.17;;;;;;;26.06;29.21;99822.28;5080821;28;20024;-68
2021/09/12 07:21:09;;;;;;;6.60;3.17;;;;;;;25.97;30.03;99813.78;5098209;28;20406;-68
2021/09/12 07:23:34;;;;;;;5.47;3.10;;;;;;;26.38;29.71;99817.63;5099922;28;20028;-68
2021/09/12 07:26:00;;;;;;;5.70;3.38;;;;;;;26.62;28.70;99812.56;5098953;28;20031;-68
2021/09/12 07:28:26;;;;;;;8.02;3.15;;;;;;;26.73;28.03;99816.94;5100303;28;20069;-68
2021/09/12 07:30:51;;;;;;;5.95;3.40;;;;;;;26.84;27.58;99811.56;5098455;28;20027;-68
2021/09/12 07:33:16;;;;;;;9.30;3.17;;;;;;;27.13;27.46;99810.06;5099483;28;20032;-68
2021/09/12 07:35:42;;;;;;;5.70;2.63;;;;;;;27.04;27.08;99819.78;5099165;28;20111;-68
2021/09/12 07:38:07;;;;;;;10.63;3.20;;;;;;;27.23;27.34;99809.25;5098930;28;20336;-68
2021/09/12 07:40:33;;;;;;;10.73;3.42;;;;;;;27.61;26.85;99805.22;5099384;28;20039;-68
2021/09/12 07:42:58;;;;;;;7.80;3.40;;;;;;;27.64;27.20;99804.69;5080270;28;20020;-68
2021/09/12 07:45:24;;;;;;;5.55;3.40;;;;;;;27.72;26.88;99797.88;5098681;28;20032;-68
2021/09/12 07:47:49;;;;;;;7.82;3.80;;;;;;;27.83;26.94;99796.78;5099641;28;20055;-68
2021/09/12 07:50:15;;;;;;;11.75;3.25;;;;;;;27.79;26.28;99791.06;5098347;28;20206;-68
2021/09/12 07:52:43;;;;;;;12.23;3.10;;;;;;;27.54;26.26;99791.88;5099571;28;20216;-68
2021/09/12 07:55:13;;;;;;;5.68;2.90;;;;;;;27.45;26.54;99798.13;5097859;28;20036;-68
2021/09/12 07:57:39;;;;;;;8.13;3.20;;;;;;;27.67;26.22;99790.53;5098348;28;20076;-68
2021/09/12 08:02:33;;;;;;;7.82;3.30;;;;;;;28.33;25.23;99793.19;5038778;28;20273;-74
2021/09/12 08:04:58;;;;;;;9.40;3.40;;;;;;;28.18;25.49;99788.56;5042152;28;20090;-74
2021/09/12 08:07:24;;;;;;;6.28;2.95;;;;;;;28.44;24.68;99783.88;5042924;28;20206;-74
2021/09/12 08:09:49;;;;;;;13.23;3.15;;;;;;;28.36;24.67;99784.44;5042700;28;20017;-74
2021/09/12 08:12:15;;;;;;;9.30;3.20;;;;;;;28.41;25.00;99783.63;5042663;28;20231;-74
2021/09/12 08:14:40;;;;;;;8.15;3.38;;;;;;;28.54;25.24;99783.00;5041491;28;20029;-74
2021/09/12 08:17:06;;;;;;;7.32;3.00;;;;;;;28.68;24.98;99783.22;5042861;28;20075;-74
2021/09/12 08:19:31;;;;;;;4.78;3.15;;;;;;;28.42;24.91;99777.88;5042418;28;20326;-74
2021/09/12 08:21:57;;;;;;;9.95;3.85;;;;;;;28.34;24.23;99778.47;5042424;28;20271;-74
2021/09/12 08:24:22;;;;;;;6.63;3.30;;;;;;;28.63;24.57;99784.06;5025006;28;20017;-74
2021/09/12 08:26:48;;;;;;;9.13;3.63;;;;;;;29.02;24.60;99772.44;5042474;28;20033;-74
2021/09/12 08:29:13;;;;;;;11.05;3.30;;;;;;;29.09;24.08;99770.19;5042543;28;20326;-74
2021/09/12 08:31:39;;;;;;;8.80;3.28;;;;;;;29.05;24.05;99767.22;5040702;28;20072;-74
2021/09/12 08:34:05;;;;;;;7.80;3.33;;;;;;;29.34;24.32;99752.84;5042093;28;20052;-74
2021/09/12 08:36:30;;;;;;;10.40;3.65;;;;;;;29.25;24.09;99774.47;5042091;28;20045;-74
2021/09/12 08:38:56;;;;;;;5.65;3.25;;;;;;;29.16;23.94;99766.09;5042166;28;20048;-74
2021/09/12 08:41:22;;;;;;;9.20;3.55;;;;;;;29.45;24.05;99763.44;5042501;28;20037;-74
2021/09/12 08:43:48;;;;;;;14.07;3.50;;;;;;;29.25;25.35;99758.09;5042137;28;20037;-74
2021/09/12 08:46:15;;;;;;;6.47;3.83;;;;;;;29.39;24.33;99758.25;5040869;28;20096;-73
2021/09/12 08:48:41;;;;;;;6.88;3.45;;;;;;;29.32;23.97;99757.78;5042559;28;20017;-74
2021/09/12 08:51:07;;;;;;;11.52;3.45;;;;;;;29.44;23.59;99756.34;5039627;28;20052;-74
2021/09/12 08:53:32;;;;;;;15.18;4.20;;;;;;;29.16;24.60;99747.00;5037579;28;20036;-73
2021/09/12 08:55:58;;;;;;;10.43;3.30;;;;;;;29.19;24.09;99743.69;5037890;28;20083;-74
2021/09/12 08:58:25;;;;;;;9.80;3.78;;;;;;;29.26;23.93;99750.75;5037503;28;20044;-74
2021/09/12 09:00:50;;;;;;;6.57;3.83;;;;;;;29.35;23.84;99738.13;5037170;28;20029;-73
2021/09/12 09:03:16;;;;;;;16.02;3.83;;;;;;;29.45;24.41;99729.88;5022626;28;20026;-74
2021/09/12 09:05:43;;;;;;;6.03;3.70;;;;;;;29.08;24.98;99741.31;5037735;28;20342;-74
2021/09/12 09:08:11;;;;;;;10.73;4.00;;;;;;;29.25;24.57;99736.28;5037040;28;20037;-74
2021/09/12 09:10:50;;;;;;;8.90;3.55;;;;;;;29.57;25.06;99727.59;5034682;28;20033;-74
2021/09/12 09:13:25;;;;;;;8.68;4.00;;;;;;;29.59;24.36;99721.84;5037754;28;20388;-73
2021/09/12 09:15:51;;;;;;;11.40;4.78;;;;;;;29.67;24.28;99718.47;5037656;28;20037;-74
2021/09/12 09:18:16;;;;;;;13.05;5.25;;;;;;;29.59;24.45;99714.47;5036951;28;20037;-74
2021/09/12 09:20:42;;;;;;;13.85;4.35;;;;;;;29.31;23.79;99716.06;5038132;28;20057;-74
2021/09/12 09:23:07;;;;;;;9.38;4.50;;;;;;;29.53;24.38;99710.97;5036629;28;20028;-74
2021/09/12 09:25:33;;;;;;;11.20;4.88;;;;;;;29.57;24.09;99718.59;5037122;28;20045;-74
2021/09/12 09:28:03;;;;;;;10.43;4.88;;;;;;;29.43;24.47;99712.97;5037684;28;20033;-74
2021/09/12 09:30:32;;;;;;;11.27;5.25;;;;;;;29.13;24.02;99708.53;5020144;28;20272;-74
2021/09/12 09:33:14;;;;;;;10.20;4.80;;;;;;;29.39;24.09;99715.44;5039894;28;20033;-74
2021/09/12 09:35:53;;;;;;;10.45;5.10;;;;;;;29.67;24.64;99710.28;5041366;28;20034;-74
2021/09/12 09:38:21;;;;;;;12.20;5.93;;;;;;;29.83;24.10;99706.31;5056581;28;20218;-74
2021/09/12 09:40:56;;;;;;;13.65;5.63;;;;;;;29.43;24.67;99693.88;5041425;28;20048;-74
2021/09/12 09:43:22;;;;;;;10.07;5.20;;;;;;;29.38;24.26;99705.63;5058088;28;20025;-74
2021/09/12 09:45:47;;;;;;;12.77;5.20;;;;;;;29.27;25.00;99690.47;5045170;28;20043;-74
2021/09/12 09:48:13;;;;;;;10.90;4.97;;;;;;;29.30;24.80;99702.72;5045282;28;20033;-73
2021/09/12 09:50:41;;;;;;;12.13;5.30;;;;;;;29.22;24.87;99701.41;5027574;28;20029;-74
2021/09/12 09:53:12;;;;;;;12.77;5.57;;;;;;;29.31;24.40;99704.34;5027371;28;20037;-73
2021/09/12 09:55:38;;;;;;;9.18;5.05;;;;;;;29.34;24.03;99676.50;5045162;28;20329;-73
2021/09/12 09:58:09;;;;;;;10.98;4.97;;;;;;;29.30;24.57;99692.63;5045376;28;20036;-75
2021/09/12 10:00:35;;;;;;;13.05;5.47;;;;;;;29.08;24.04;99684.06;5044343;28;20041;-74
2021/09/12 10:03:01;;;;;;;10.82;5.15;;;;;;;29.26;24.41;99686.09;5045222;28;20038;-74
2021/09/12 10:05:27;;;;;;;11.80;5.60;;;;;;;29.04;23.95;99688.44;5043252;28;20025;-74
2021/09/12 10:07:54;;;;;;;12.20;5.28;;;;;;;28.70;24.51;99682.94;5042594;28;20093;-74
2021/09/12 10:10:20;;;;;;;10.25;5.90;;;;;;;28.62;24.17;99692.53;5043902;28;20049;-74
2021/09/12 10:13:06;;;;;;;13.45;6.22;;;;;;;28.50;24.23;99673.81;5026703;28;20242;-74
2021/09/12 10:15:42;;;;;;;9.55;5.50;;;;;;;28.50;24.24;99673.81;5043008;28;20033;-74
2021/09/12 10:18:10;;;;;;;10.40;5.68;;;;;;;28.56;24.83;99661.78;5044425;28;20061;-74
2021/09/12 10:20:37;;;;;;;12.60;5.50;;;;;;;28.62;25.58;99657.13;5044287;28;20095;-73
2021/09/12 10:23:08;;;;;;;10.38;5.68;;;;;;;28.68;25.36;99664.16;5042396;28;20145;-73
2021/09/12 10:25:54;;;;;;;12.70;6.20;;;;;;;28.66;24.68;99660.91;5043830;28;20100;-74
2021/09/12 10:28:35;;;;;;;11.48;6.03;;;;;;;28.66;23.97;99655.44;5026753;28;20226;-74
2021/09/12 10:31:21;;;;;;;12.25;5.88;;;;;;;28.74;23.79;99656.75;5043172;28;20230;-74
2021/09/12 10:34:12;;;;;;;12.43;6.32;;;;;;;28.77;24.49;99656.19;5039559;28;20069;-74
2021/09/12 10:36:40;;;;;;;12.90;5.85;;;;;;;28.66;25.78;99646.47;5043496;28;20230;-74
2021/09/12 10:39:20;;;;;;;10.05;5.60;;;;;;;28.75;25.16;99650.22;5043197;28;20037;-74
2021/09/12 10:42:11;;;;;;;15.85;5.88;;;;;;;28.78;26.23;99647.72;5043619;28;20037;-74
2021/09/12 10:44:36;;;;;;;15.93;6.03;;;;;;;28.84;25.25;99635.72;5043389;28;20033;-74
2021/09/12 10:47:06;;;;;;;10.63;5.38;;;;;;;28.96;24.65;99638.09;5043239;28;20029;-74
2021/09/12 10:49:32;;;;;;;11.10;5.88;;;;;;;29.10;23.88;99639.03;5043209;28;20338;-74
2021/09/12 10:51:57;;;;;;;10.38;6.15;;;;;;;28.82;25.23;99621.53;5043189;28;20037;-74
2021/09/12 10:54:23;;;;;;;9.48;5.88;;;;;;;29.11;24.27;99631.69;5025153;28;20037;-74
2021/09/12 10:57:06;;;;;;;12.32;6.70;;;;;;;29.07;24.34;99628.72;5041726;28;20063;-74
2021/09/12 10:59:32;;;;;;;13.30;6.15;;;;;;;28.78;24.16;99627.84;5043310;28;20073;-74
2021/09/12 11:01:58;;;;;;;13.73;6.20;;;;;;;28.69;24.74;99635.00;5042775;28;20053;-74
2021/09/12 11:04:32;;;;;;;11.60;6.18;;;;;;;28.53;24.95;99632.38;5025770;28;20029;-74
2021/09/12 11:07:04;;;;;;;17.85;6.82;;;;;;;28.31;25.46;99623.81;5026366;28;20022;-73
2021/09/12 11:09:31;;;;;;;11.93;5.55;;;;;;;27.89;24.80;99633.22;5042755;28;20033;-74
2021/09/12 11:11:59;;;;;;;9.70;6.05;;;;;;;27.66;25.37;99623.78;5043088;28;20228;-74
2021/09/12 11:14:26;;;;;;;13.70;6.32;;;;;;;28.08;25.53;99622.50;5042802;28;20082;-74
2021/09/12 11:16:52;;;;;;;16.73;6.38;;;;;;;27.93;26.92;99617.16;5042702;28;20107;-73
2021/09/12 11:19:18;;;;;;;11.40;5.97;;;;;;;27.83;26.00;99612.56;5042820;28;20053;-74
2021/09/12 11:21:49;;;;;;;8.30;5.43;;;;;;;28.10;26.55;99609.47;5041960;28;20029;-74
2021/09/12 11:24:17;;;;;;;16.40;5.63;;;;;;;28.02;26.92;99607.31;5042744;28;20033;-74
2021/09/12 11:26:45;;;;;;;11.65;6.30;;;;;;;28.25;25.97;99611.31;5042502;28;20041;-74
2021/09/12 11:29:13;;;;;;;12.15;5.97;;;;;;;28.25;24.83;99605.88;5041772;28;20037;-74